KSTP/STP METAR and TAF weather

Enter ICAO airport designator
Station Type Date Time Source
KSTP METAR 2020/01/29 12:53 UTC NOAA

KSTP 291253Z 00000KT 7SM OVC014 M08/M11 A3023 RMK AO2 SLP247 T10781111


Station Type Date Time Source
KSTP Decoded METAR 2020/01/29 12:53 UTC NOAA

DOWNTOWN HOLMAN FIELD, MN, United States (KSTP) 44-56N 093-03W 219M
Jan 29, 2020 - 07:53 AM EST / 2020.01.29 1253 UTC
Wind: Calm:0
Visibility: 7 mile(s):0
Sky conditions: overcast
Temperature: 18.0 F (-7.8 C)
Dew Point: 12.0 F (-11.1 C)
Relative Humidity: 77%
Pressure (altimeter): 30.23 in. Hg (1023 hPa)
ob: KSTP 291253Z 00000KT 7SM OVC014 M08/M11 A3023 RMK AO2 SLP247 T10781111
cycle: 13

Station Type Date Time Source
KSTP TAF 2018/02/05 20:57 UTC NOAA

TAF
AMD KSTP 051957Z 0520/0618 25007KT P6SM VCSH BKN020 OVC050
TEMPO 0520/0522 SCT020
FM052200 26006KT P6SM FEW020 BKN110
FM060100 31006KT P6SM FEW100
AMD NOT SKED

Example: see airport list